createdAt,value
2017-01-24T00:00:02.217Z,79.93
2017-01-24T00:00:23.922Z,79.84
2017-01-24T00:00:50.393Z,79.82
2017-01-24T00:01:12.190Z,80.25
2017-01-24T00:01:33.987Z,80.35
2017-01-24T00:02:00.463Z,79.96
2017-01-24T00:02:22.159Z,80.12
2017-01-24T00:02:43.961Z,80.18
2017-01-24T00:03:05.666Z,80.44
2017-01-24T00:03:27.366Z,80.41
2017-01-24T00:04:29.890Z,80.04
2017-01-24T00:04:51.602Z,80.00
2017-01-24T00:05:13.414Z,80.00
2017-01-24T00:05:35.129Z,79.75
2017-01-24T00:05:57.100Z,79.92
2017-01-24T00:06:23.576Z,80.08
2017-01-24T00:06:45.375Z,80.29
2017-01-24T00:07:07.090Z,80.33
2017-01-24T00:07:33.580Z,80.35
2017-01-24T00:07:55.285Z,80.01
2017-01-24T00:08:19.759Z,80.13
2017-01-24T00:08:41.475Z,80.24
2017-01-24T00:09:03.189Z,80.24
2017-01-24T00:10:16.449Z,80.73
2017-01-24T00:10:38.165Z,80.92
2017-01-24T00:13:11.830Z,80.78
2017-01-24T00:13:33.564Z,80.74
2017-01-24T00:14:00.072Z,80.79
2017-01-24T00:14:21.867Z,80.72
2017-01-24T00:14:43.573Z,80.81
2017-01-24T00:15:05.283Z,80.77
2017-01-24T00:15:26.990Z,80.67
2017-01-24T00:15:48.767Z,80.88
2017-01-24T00:16:10.494Z,80.84
2017-01-24T00:16:32.213Z,80.84
2017-01-24T00:17:03.467Z,80.74
2017-01-24T00:17:25.252Z,80.84
2017-01-24T00:17:51.739Z,80.96
2017-01-24T00:18:13.451Z,80.91
2017-01-24T00:18:35.247Z,81.17
2017-01-24T00:19:01.752Z,81.26
2017-01-24T00:19:23.435Z,81.17
2017-01-24T00:19:54.824Z,81.13
2017-01-24T00:20:16.507Z,81.27
2017-01-24T00:20:47.784Z,81.26
2017-01-24T00:21:09.563Z,81.00
2017-01-24T00:21:36.120Z,81.08
2017-01-24T00:21:57.783Z,81.27
2017-01-24T00:22:24.312Z,81.35
2017-01-24T00:22:46.020Z,81.42
2017-01-24T00:23:07.752Z,81.44
2017-01-24T00:23:39.012Z,81.35
2017-01-24T00:24:00.845Z,81.33
2017-01-24T00:24:27.336Z,81.23
2017-01-24T00:24:49.028Z,81.40
2017-01-24T00:25:10.818Z,81.38
2017-01-24T00:25:37.296Z,81.57
2017-01-24T00:25:59.012Z,81.57
2017-01-24T00:26:25.544Z,81.67
2017-01-24T00:26:47.281Z,81.46
2017-01-24T00:27:13.771Z,81.42
2017-01-24T00:27:35.475Z,81.57
2017-01-24T00:27:57.269Z,81.65
2017-01-24T00:28:23.867Z,81.60
2017-01-24T00:28:45.676Z,81.59
2017-01-24T00:29:07.467Z,81.49
2017-01-24T00:29:38.839Z,81.21
2017-01-24T00:30:00.497Z,81.32
2017-01-24T00:30:22.202Z,81.56
2017-01-24T00:30:43.907Z,81.40
2017-01-24T00:31:05.694Z,81.17
2017-01-24T00:31:27.390Z,81.21
2017-01-24T00:31:53.883Z,81.34
2017-01-24T00:32:15.675Z,81.40
2017-01-24T00:33:13.995Z,81.53
2017-01-24T00:33:35.779Z,81.36
2017-01-24T00:34:02.260Z,80.83
2017-01-24T00:34:23.985Z,80.65
2017-01-24T00:35:26.490Z,80.75
2017-01-24T00:35:48.199Z,80.71
2017-01-24T00:36:09.919Z,80.72
2017-01-24T00:36:36.486Z,80.77
2017-01-24T00:36:58.224Z,80.95
2017-01-24T00:37:19.946Z,80.97
2017-01-24T00:37:41.652Z,81.05
2017-01-24T00:38:03.448Z,80.98
2017-01-24T00:38:25.166Z,80.88
2017-01-24T00:38:46.878Z,80.84
2017-01-24T00:39:13.360Z,80.77
2017-01-24T00:39:35.152Z,80.69
2017-01-24T00:40:37.665Z,80.43
2017-01-24T00:40:59.456Z,80.45
2017-01-24T00:41:21.169Z,80.40
2017-01-24T00:41:42.893Z,80.37
2017-01-24T00:42:04.635Z,80.36
2017-01-24T00:42:26.429Z,80.54
2017-01-24T00:42:48.139Z,80.56
2017-01-24T00:43:14.631Z,80.45
2017-01-24T00:43:36.413Z,80.62
2017-01-24T00:43:58.131Z,80.60
2017-01-24T00:44:19.840Z,80.70
2017-01-24T00:44:41.578Z,81.00
2017-01-24T00:45:03.334Z,81.21
2017-01-24T00:45:25.057Z,81.40
2017-01-24T00:45:46.761Z,81.51
2017-01-24T00:46:11.125Z,81.63
2017-01-24T00:46:32.909Z,81.75
2017-01-24T00:46:56.628Z,81.96
2017-01-24T00:47:18.388Z,82.00
2017-01-24T00:47:40.109Z,82.11
2017-01-24T00:48:06.657Z,82.18
2017-01-24T00:48:28.371Z,82.13
2017-01-24T00:48:50.090Z,82.11
2017-01-24T00:49:11.816Z,82.02
2017-01-24T00:49:33.633Z,82.00
2017-01-24T00:49:55.334Z,81.85
2017-01-24T00:50:21.812Z,81.67
2017-01-24T00:50:43.520Z,81.54
2017-01-24T00:51:05.313Z,81.65
2017-01-24T00:51:27.028Z,81.81
2017-01-24T00:51:48.838Z,81.79
2017-01-24T00:52:20.253Z,81.70
2017-01-24T00:52:41.883Z,81.86
2017-01-24T00:53:03.588Z,81.84
2017-01-24T00:53:25.321Z,81.96
2017-01-24T00:53:47.111Z,81.86
2017-01-24T00:54:08.823Z,81.78
2017-01-24T00:54:35.325Z,81.68
2017-01-24T00:54:57.037Z,81.50
2017-01-24T00:55:28.426Z,81.41
2017-01-24T00:55:50.081Z,81.26
2017-01-24T00:56:21.363Z,81.43
2017-01-24T00:56:43.117Z,81.54
2017-01-24T00:57:09.600Z,81.62
2017-01-24T00:57:31.319Z,81.48
2017-01-24T00:58:34.503Z,81.21
2017-01-24T00:58:56.209Z,81.06
2017-01-24T00:59:22.762Z,81.41
2017-01-24T00:59:44.471Z,81.59
2017-01-24T01:00:10.967Z,81.66
2017-01-24T01:00:32.667Z,81.74
2017-01-24T01:00:54.489Z,81.75
2017-01-24T01:01:20.992Z,81.78
2017-01-24T01:01:42.704Z,81.98
2017-01-24T01:02:45.274Z,82.27
2017-01-24T01:03:11.753Z,82.21
2017-01-24T01:03:33.485Z,82.21
2017-01-24T01:03:59.972Z,82.18
2017-01-24T01:04:21.691Z,82.14
2017-01-24T01:04:48.183Z,81.90
2017-01-24T01:05:09.914Z,81.71
2017-01-24T01:05:41.162Z,81.70
2017-01-24T01:06:02.888Z,81.47
2017-01-24T01:07:06.005Z,81.61
2017-01-24T01:07:27.716Z,81.47
2017-01-24T01:08:30.823Z,81.66
2017-01-24T01:08:52.599Z,81.58
2017-01-24T01:09:55.706Z,81.55
2017-01-24T01:10:17.428Z,81.45
2017-01-24T01:11:20.507Z,81.48
2017-01-24T01:11:42.247Z,81.69
2017-01-24T01:12:54.321Z,81.63
2017-01-24T01:13:16.072Z,81.79
2017-01-24T01:14:18.685Z,81.70
2017-01-24T01:14:45.130Z,81.45
2017-01-24T01:15:06.845Z,81.64
2017-01-24T01:15:28.563Z,81.71
2017-01-24T01:15:59.820Z,81.58
2017-01-24T01:16:22.707Z,81.76
2017-01-24T01:17:32.666Z,81.86
2017-01-24T01:17:54.387Z,81.91
2017-01-24T01:18:16.112Z,81.97
2017-01-24T01:18:47.370Z,81.77
2017-01-24T01:19:09.098Z,81.67
2017-01-24T01:19:40.359Z,81.87
2017-01-24T01:20:02.072Z,81.97
2017-01-24T01:20:28.551Z,81.87
2017-01-24T01:20:50.266Z,82.01
2017-01-24T01:21:11.977Z,82.08
2017-01-24T01:21:38.451Z,81.87
2017-01-24T01:22:00.161Z,81.99
2017-01-24T01:22:21.878Z,81.85
2017-01-24T01:22:53.139Z,81.80
2017-01-24T01:23:14.851Z,81.93
2017-01-24T01:23:41.341Z,81.87
2017-01-24T01:24:03.050Z,82.06
2017-01-24T01:24:24.785Z,82.06
2017-01-24T01:24:46.550Z,82.07
2017-01-24T01:25:08.265Z,81.95
2017-01-24T01:25:39.539Z,81.88
2017-01-24T01:26:01.277Z,81.97
2017-01-24T01:26:22.986Z,82.20
2017-01-24T01:26:49.491Z,82.20
2017-01-24T01:27:11.213Z,82.08
2017-01-24T01:27:37.746Z,82.20
2017-01-24T01:27:59.443Z,82.14
2017-01-24T01:28:21.165Z,82.29
2017-01-24T01:28:52.432Z,82.29
2017-01-24T01:29:14.160Z,82.61
2017-01-24T01:29:35.867Z,82.53
2017-01-24T01:30:07.130Z,82.54
2017-01-24T01:30:28.851Z,82.20
2017-01-24T01:30:50.577Z,82.33
2017-01-24T01:31:12.287Z,82.18
2017-01-24T01:31:33.988Z,82.12
2017-01-24T01:32:05.271Z,82.13
2017-01-24T01:32:27.005Z,82.16
2017-01-24T01:32:53.498Z,82.39
2017-01-24T01:33:15.207Z,82.30
2017-01-24T01:33:36.971Z,82.37
2017-01-24T01:34:03.491Z,82.09
2017-01-24T01:34:25.200Z,82.27
2017-01-24T01:34:51.695Z,82.39
2017-01-24T01:35:13.402Z,82.64
2017-01-24T01:35:35.142Z,82.66
2017-01-24T01:36:06.408Z,82.56
2017-01-24T01:36:28.128Z,82.40
2017-01-24T01:36:49.867Z,82.18
2017-01-24T01:37:21.147Z,82.36
2017-01-24T01:37:42.880Z,82.29
2017-01-24T01:38:04.653Z,82.34
2017-01-24T01:38:35.920Z,82.16
2017-01-24T01:38:57.647Z,82.21
2017-01-24T01:39:19.379Z,82.02
2017-01-24T01:39:50.637Z,81.90
2017-01-24T01:40:12.426Z,82.13
2017-01-24T01:40:34.122Z,82.17
2017-01-24T01:41:05.396Z,82.00
2017-01-24T01:41:29.738Z,82.23
2017-01-24T01:41:56.246Z,82.35
2017-01-24T01:42:17.972Z,82.08
2017-01-24T01:42:39.712Z,82.05
2017-01-24T01:43:06.205Z,82.17
2017-01-24T01:43:27.921Z,82.11
2017-01-24T01:43:49.657Z,82.13
2017-01-24T01:44:52.754Z,82.35
2017-01-24T01:45:14.461Z,82.20
2017-01-24T01:46:21.743Z,82.15
2017-01-24T01:46:43.456Z,82.12
2017-01-24T01:47:09.941Z,82.29
2017-01-24T01:47:31.772Z,82.34
2017-01-24T01:48:03.037Z,82.60
2017-01-24T01:48:24.743Z,82.59
2017-01-24T01:48:56.007Z,82.67
2017-01-24T01:49:17.729Z,82.68
2017-01-24T01:50:20.807Z,82.94
2017-01-24T01:50:42.528Z,83.22
2017-01-24T01:51:50.381Z,83.07
2017-01-24T01:52:12.125Z,83.01
2017-01-24T01:52:43.396Z,82.84
2017-01-24T01:53:05.138Z,82.93
2017-01-24T01:53:26.848Z,82.77
2017-01-24T01:53:48.564Z,82.80
2017-01-24T01:54:10.288Z,83.02
2017-01-24T01:55:12.827Z,83.36
2017-01-24T01:55:34.543Z,83.37
2017-01-24T01:56:05.799Z,83.44
2017-01-24T01:56:27.524Z,83.51
2017-01-24T01:56:49.233Z,83.47
2017-01-24T01:57:10.967Z,83.34
2017-01-24T01:57:32.724Z,83.58
2017-01-24T01:57:54.454Z,83.63
2017-01-24T01:58:20.935Z,83.61
2017-01-24T01:58:42.660Z,83.36
2017-01-24T01:59:45.802Z,82.82
2017-01-24T02:00:07.517Z,82.84
2017-01-24T02:00:29.230Z,83.13
2017-01-24T02:00:55.745Z,83.08
2017-01-24T02:01:17.517Z,82.99
2017-01-24T02:02:20.623Z,82.92
2017-01-24T02:02:42.327Z,82.86
2017-01-24T02:03:04.080Z,82.71
2017-01-24T02:03:30.621Z,82.58
2017-01-24T02:03:52.329Z,82.62
2017-01-24T02:04:23.594Z,82.71
2017-01-24T02:04:45.297Z,82.65
2017-01-24T02:05:16.557Z,82.65
2017-01-24T02:05:38.275Z,82.57
2017-01-24T02:06:01.209Z,82.63
2017-01-24T02:06:32.463Z,82.65
2017-01-24T02:06:55.175Z,82.58
2017-01-24T02:08:02.473Z,82.96
2017-01-24T02:08:24.188Z,83.14
2017-01-24T02:08:45.912Z,83.14
2017-01-24T02:09:44.205Z,83.23
2017-01-24T02:10:05.903Z,83.04
2017-01-24T02:11:13.193Z,82.93
2017-01-24T02:11:34.908Z,82.86
2017-01-24T02:11:56.639Z,82.79
2017-01-24T02:12:23.143Z,82.67
2017-01-24T02:12:47.615Z,82.64
2017-01-24T02:13:14.140Z,82.67
2017-01-24T02:13:35.881Z,82.93
2017-01-24T02:13:57.603Z,83.23
2017-01-24T02:14:24.175Z,83.29
2017-01-24T02:14:45.980Z,83.33
2017-01-24T02:15:07.707Z,83.34
2017-01-24T02:15:34.400Z,83.29
2017-01-24T02:15:56.194Z,83.16
2017-01-24T02:16:17.967Z,83.06
2017-01-24T02:16:44.472Z,82.79
2017-01-24T02:17:06.245Z,82.71
2017-01-24T02:17:27.995Z,82.85
2017-01-24T02:17:49.711Z,82.71
2017-01-24T02:18:11.423Z,82.76
2017-01-24T02:18:33.256Z,82.83
2017-01-24T02:18:59.759Z,82.76
2017-01-24T02:19:21.458Z,82.70
2017-01-24T02:19:43.186Z,82.56
2017-01-24T02:20:09.745Z,82.66
2017-01-24T02:20:31.455Z,82.80
2017-01-24T02:20:57.941Z,82.98
2017-01-24T02:21:19.668Z,83.05
2017-01-24T02:21:41.512Z,83.19
2017-01-24T02:22:39.867Z,83.02
2017-01-24T02:23:01.670Z,82.90
2017-01-24T02:23:32.940Z,82.65
2017-01-24T02:23:54.683Z,82.63
2017-01-24T02:24:21.256Z,82.65
2017-01-24T02:24:42.965Z,82.58
2017-01-24T02:25:04.670Z,82.54
2017-01-24T02:25:26.396Z,82.41
2017-01-24T02:25:48.203Z,82.50
2017-01-24T02:26:14.712Z,82.53
2017-01-24T02:26:36.441Z,82.47
2017-01-24T02:27:07.704Z,82.44
2017-01-24T02:27:29.499Z,82.59
2017-01-24T02:28:00.767Z,82.69
2017-01-24T02:28:22.690Z,82.70
2017-01-24T02:28:44.402Z,82.61
2017-01-24T02:29:06.135Z,82.42
2017-01-24T02:29:27.854Z,82.39
2017-01-24T02:29:49.666Z,82.40
2017-01-24T02:30:52.795Z,82.83
2017-01-24T02:31:14.641Z,82.76
2017-01-24T02:31:36.384Z,82.65
2017-01-24T02:32:07.675Z,82.43
2017-01-24T02:32:29.445Z,82.34
2017-01-24T02:33:00.709Z,82.38
2017-01-24T02:33:22.417Z,82.23
2017-01-24T02:34:24.933Z,82.17
2017-01-24T02:34:46.648Z,82.01
2017-01-24T02:35:08.443Z,82.07
2017-01-24T02:35:39.726Z,82.23
2017-01-24T02:36:01.416Z,82.29
2017-01-24T02:36:23.224Z,82.29
2017-01-24T02:36:44.948Z,82.43
2017-01-24T02:37:06.670Z,82.51
2017-01-24T02:38:09.972Z,82.36
2017-01-24T02:38:31.694Z,82.43
2017-01-24T02:39:02.949Z,82.46
2017-01-24T02:39:24.747Z,82.43
2017-01-24T02:39:51.236Z,82.19
2017-01-24T02:40:12.948Z,82.20
2017-01-24T02:40:34.734Z,82.19
2017-01-24T02:41:01.236Z,82.35
2017-01-24T02:41:22.939Z,82.32
2017-01-24T02:41:54.331Z,82.58
2017-01-24T02:42:15.975Z,82.50
2017-01-24T02:42:47.250Z,82.35
2017-01-24T02:43:09.039Z,82.40
2017-01-24T02:43:35.529Z,82.33
2017-01-24T02:43:57.249Z,82.37
2017-01-24T02:44:28.648Z,82.57
2017-01-24T02:44:50.292Z,82.65
2017-01-24T02:45:16.781Z,82.71
2017-01-24T02:45:38.509Z,82.90
2017-01-24T02:46:05.085Z,83.02
2017-01-24T02:46:26.808Z,83.00
2017-01-24T02:46:53.296Z,82.96
2017-01-24T02:47:14.996Z,82.90
2017-01-24T02:47:41.562Z,82.77
2017-01-24T02:48:03.287Z,82.73
2017-01-24T02:48:25.047Z,82.66
2017-01-24T02:48:46.762Z,82.67
2017-01-24T02:49:18.024Z,82.53
2017-01-24T02:49:39.808Z,82.40
2017-01-24T02:50:01.524Z,82.40
2017-01-24T02:50:28.008Z,82.34
2017-01-24T02:50:49.800Z,82.43
2017-01-24T02:51:52.327Z,82.38
2017-01-24T02:52:14.129Z,82.27
2017-01-24T02:52:45.396Z,82.38
2017-01-24T02:53:07.111Z,82.43
2017-01-24T02:53:33.703Z,82.51
2017-01-24T02:53:55.415Z,82.60
2017-01-24T02:54:17.124Z,82.65
2017-01-24T02:54:43.691Z,82.74
2017-01-24T02:55:05.412Z,82.96
2017-01-24T02:55:31.890Z,83.06
2017-01-24T02:55:53.598Z,83.13
2017-01-24T02:56:24.856Z,83.13
2017-01-24T02:56:46.651Z,83.12
2017-01-24T02:57:17.909Z,82.93
2017-01-24T02:57:39.713Z,82.88
2017-01-24T02:58:01.423Z,82.82
2017-01-24T02:58:23.131Z,82.78
2017-01-24T02:58:44.840Z,82.78
2017-01-24T02:59:16.101Z,82.71
2017-01-24T02:59:37.946Z,82.78
2017-01-24T03:00:04.395Z,82.59
2017-01-24T03:00:26.155Z,82.50
2017-01-24T03:00:52.708Z,82.43
2017-01-24T03:01:14.423Z,82.34
2017-01-24T03:01:36.155Z,82.36
2017-01-24T03:02:02.718Z,82.41
2017-01-24T03:02:24.427Z,82.43
2017-01-24T03:02:55.681Z,82.39
2017-01-24T03:03:17.496Z,82.41
2017-01-24T03:03:48.766Z,82.34
2017-01-24T03:04:13.041Z,82.37
2017-01-24T03:04:34.843Z,82.29
2017-01-24T03:04:56.572Z,82.18
2017-01-24T03:05:23.073Z,82.21
2017-01-24T03:05:44.865Z,82.20
2017-01-24T03:06:07.797Z,82.23
2017-01-24T03:06:34.280Z,82.14
2017-01-24T03:06:56.072Z,82.23
2017-01-24T03:07:22.562Z,82.17
2017-01-24T03:07:44.278Z,82.28
2017-01-24T03:08:05.992Z,82.25
2017-01-24T03:08:27.796Z,82.16
2017-01-24T03:08:49.506Z,82.30
2017-01-24T03:09:15.988Z,82.13
2017-01-24T03:11:40.134Z,82.51
2017-01-24T03:12:01.861Z,82.61
2017-01-24T03:12:33.125Z,82.81
2017-01-24T03:12:54.908Z,82.73
2017-01-24T03:13:16.626Z,82.66
2017-01-24T03:13:38.347Z,82.60
2017-01-24T03:14:00.079Z,82.54
2017-01-24T03:14:26.669Z,82.40
2017-01-24T03:14:48.367Z,82.33
2017-01-24T03:15:10.101Z,82.42
2017-01-24T03:15:31.845Z,82.37
2017-01-24T03:15:53.633Z,82.35
2017-01-24T03:16:15.369Z,82.36
2017-01-24T03:16:46.636Z,82.49
2017-01-24T03:17:08.360Z,82.53
2017-01-24T03:17:30.066Z,82.35
2017-01-24T03:17:51.774Z,82.25
2017-01-24T03:18:13.503Z,82.26
2017-01-24T03:18:35.284Z,82.25
2017-01-24T03:18:56.991Z,82.23
2017-01-24T03:19:18.716Z,82.27
2017-01-24T03:19:40.402Z,82.31
2017-01-24T03:20:06.948Z,82.50
2017-01-24T03:20:28.652Z,82.49
2017-01-24T03:20:50.360Z,82.69
2017-01-24T03:21:16.978Z,82.72
2017-01-24T03:21:38.681Z,82.94
2017-01-24T03:22:46.033Z,83.19
2017-01-24T03:23:07.748Z,83.15
2017-01-24T03:23:39.035Z,83.34
2017-01-24T03:24:00.718Z,83.32
2017-01-24T03:24:32.107Z,83.27
2017-01-24T03:24:53.765Z,83.20
2017-01-24T03:25:25.055Z,83.22
2017-01-24T03:25:46.904Z,83.27
2017-01-24T03:26:08.609Z,83.41
2017-01-24T03:26:30.316Z,83.36
2017-01-24T03:26:52.051Z,83.25
2017-01-24T03:27:13.750Z,83.30
2017-01-24T03:27:45.033Z,83.34
2017-01-24T03:28:06.763Z,83.34
2017-01-24T03:28:28.470Z,83.30
2017-01-24T03:28:59.730Z,83.17
2017-01-24T03:29:21.426Z,83.05
2017-01-24T03:29:47.918Z,83.15
2017-01-24T03:30:09.635Z,83.19
2017-01-24T03:30:36.114Z,83.16
2017-01-24T03:30:57.836Z,83.28
2017-01-24T03:31:24.367Z,83.33
2017-01-24T03:31:46.108Z,83.38
2017-01-24T03:32:12.613Z,83.32
2017-01-24T03:32:34.341Z,83.47
2017-01-24T03:32:56.060Z,83.55
2017-01-24T03:33:22.589Z,83.62
2017-01-24T03:33:44.297Z,83.44
2017-01-24T03:34:15.586Z,83.54
2017-01-24T03:34:37.299Z,83.60
2017-01-24T03:35:08.546Z,83.66
2017-01-24T03:35:30.265Z,83.63
2017-01-24T03:35:51.970Z,83.59
2017-01-24T03:36:18.486Z,83.46
2017-01-24T03:36:40.197Z,83.42
2017-01-24T03:37:11.459Z,83.23
2017-01-24T03:37:33.344Z,83.10
2017-01-24T03:38:04.610Z,82.93
2017-01-24T03:38:26.339Z,82.85
2017-01-24T03:38:48.086Z,82.73
2017-01-24T03:39:14.627Z,82.75
2017-01-24T03:40:21.919Z,82.67
2017-01-24T03:40:43.617Z,82.64
2017-01-24T03:41:50.914Z,82.69
2017-01-24T03:42:12.661Z,82.67
2017-01-24T03:43:19.967Z,82.70
2017-01-24T03:43:41.662Z,82.72
2017-01-24T03:44:08.149Z,82.71
2017-01-24T03:44:29.855Z,82.56
2017-01-24T03:44:51.567Z,82.67
2017-01-24T03:45:13.291Z,82.61
2017-01-24T03:45:35.011Z,82.55
2017-01-24T03:45:56.729Z,82.53
2017-01-24T03:46:18.440Z,82.79
2017-01-24T03:46:40.190Z,82.83
2017-01-24T03:47:01.979Z,82.70
2017-01-24T03:47:23.712Z,82.58
2017-01-24T03:47:45.422Z,82.84
2017-01-24T03:48:07.187Z,82.98
2017-01-24T03:48:33.723Z,82.96
2017-01-24T03:48:55.437Z,83.00
2017-01-24T03:49:26.700Z,83.21
2017-01-24T03:49:51.276Z,83.19
2017-01-24T03:50:13.005Z,83.27
2017-01-24T03:50:34.714Z,83.35
2017-01-24T03:50:56.501Z,83.29
2017-01-24T03:51:20.998Z,83.36
2017-01-24T03:51:42.703Z,83.41
2017-01-24T03:52:04.434Z,83.28
2017-01-24T03:52:30.924Z,83.12
2017-01-24T03:52:52.680Z,83.09
2017-01-24T03:53:24.022Z,83.19
2017-01-24T03:53:45.756Z,83.27
2017-01-24T03:54:07.462Z,83.32
2017-01-24T03:54:33.948Z,83.35
2017-01-24T03:54:55.673Z,83.26
2017-01-24T03:55:22.153Z,83.06
2017-01-24T03:55:43.884Z,82.96
2017-01-24T03:56:05.625Z,83.05
2017-01-24T03:56:36.879Z,83.03
2017-01-24T03:56:58.617Z,82.87
2017-01-24T03:57:29.878Z,82.82
2017-01-24T03:57:51.592Z,82.69
2017-01-24T03:58:18.070Z,82.58
2017-01-24T03:58:39.772Z,82.58
2017-01-24T03:59:01.517Z,82.69
2017-01-24T03:59:32.781Z,82.73
2017-01-24T03:59:54.486Z,82.75
2017-01-24T04:00:20.981Z,82.92
2017-01-24T04:00:42.687Z,82.78
2017-01-24T04:01:04.400Z,82.96
2017-01-24T04:01:30.886Z,83.18
2017-01-24T04:01:52.604Z,83.22
2017-01-24T04:02:59.900Z,83.86
2017-01-24T04:03:21.603Z,84.03
2017-01-24T04:03:55.661Z,84.14
2017-01-24T04:04:22.176Z,84.05
2017-01-24T04:04:43.923Z,84.06
2017-01-24T04:05:51.219Z,83.89
2017-01-24T04:06:12.976Z,83.81
2017-01-24T04:06:34.684Z,83.63
2017-01-24T04:07:01.193Z,83.54
2017-01-24T04:07:22.896Z,83.51
2017-01-24T04:07:49.376Z,83.38
2017-01-24T04:08:11.092Z,83.39
2017-01-24T04:08:32.796Z,83.22
2017-01-24T04:08:54.508Z,83.09
2017-01-24T04:09:16.211Z,82.90
2017-01-24T04:09:42.685Z,82.85
2017-01-24T04:10:04.394Z,82.81
2017-01-24T04:10:30.886Z,82.90
2017-01-24T04:10:55.075Z,82.90
2017-01-24T04:11:16.781Z,82.96
2017-01-24T04:11:48.055Z,82.87
2017-01-24T04:12:09.754Z,82.88
2017-01-24T04:12:31.471Z,82.82
2017-01-24T04:12:57.942Z,82.88
2017-01-24T04:13:19.671Z,82.93
2017-01-24T04:13:46.163Z,82.96
2017-01-24T04:14:07.876Z,82.84
2017-01-24T04:14:34.356Z,82.92
2017-01-24T04:14:56.070Z,82.76
2017-01-24T04:15:22.556Z,82.72
2017-01-24T04:15:44.278Z,82.63
2017-01-24T04:16:10.746Z,82.73
2017-01-24T04:16:42.007Z,82.74
2017-01-24T04:17:03.725Z,82.76
2017-01-24T04:17:30.215Z,82.82
2017-01-24T04:17:51.936Z,82.67
2017-01-24T04:18:13.648Z,82.74
2017-01-24T04:18:35.363Z,82.82
2017-01-24T04:18:57.088Z,82.91
2017-01-24T04:19:28.346Z,82.80
2017-01-24T04:19:50.067Z,82.85
2017-01-24T04:20:21.348Z,82.74
2017-01-24T04:20:43.062Z,82.74
2017-01-24T04:21:04.778Z,82.84
2017-01-24T04:21:31.252Z,82.70
2017-01-24T04:21:52.967Z,82.85
2017-01-24T04:22:14.679Z,82.77
2017-01-24T04:22:41.165Z,82.78
2017-01-24T04:23:02.921Z,82.75
2017-01-24T04:23:24.737Z,82.69
2017-01-24T04:23:51.227Z,82.68
2017-01-24T04:24:12.947Z,82.63
2017-01-24T04:24:34.650Z,82.63
2017-01-24T04:25:05.914Z,82.60
2017-01-24T04:25:27.626Z,82.63
2017-01-24T04:25:49.365Z,82.65
2017-01-24T04:26:15.898Z,82.66
2017-01-24T04:26:37.655Z,82.67
2017-01-24T04:27:08.926Z,82.58
2017-01-24T04:27:30.622Z,82.59
2017-01-24T04:28:01.886Z,82.63
2017-01-24T04:28:23.598Z,82.60
2017-01-24T04:28:54.855Z,82.60
2017-01-24T04:29:16.586Z,82.71
2017-01-24T04:29:47.866Z,82.93
2017-01-24T04:30:09.591Z,82.90
2017-01-24T04:31:12.730Z,83.04
2017-01-24T04:31:34.456Z,83.02
2017-01-24T04:31:56.199Z,83.05
2017-01-24T04:32:22.858Z,82.98
2017-01-24T04:32:44.587Z,82.95
2017-01-24T04:33:06.301Z,83.11
2017-01-24T04:33:32.778Z,82.97
2017-01-24T04:33:54.497Z,82.85
2017-01-24T04:34:16.210Z,82.89
2017-01-24T04:34:37.920Z,83.03
2017-01-24T04:34:59.645Z,82.98
2017-01-24T04:35:21.348Z,83.00
2017-01-24T04:35:47.833Z,82.92
2017-01-24T04:36:09.540Z,82.81
2017-01-24T04:36:31.272Z,82.75
2017-01-24T04:36:52.986Z,82.77
2017-01-24T04:37:14.685Z,82.90
2017-01-24T04:37:36.424Z,82.84
2017-01-24T04:38:02.916Z,82.85
2017-01-24T04:38:24.624Z,83.00
2017-01-24T04:38:46.353Z,83.13
2017-01-24T04:39:13.265Z,83.06
2017-01-24T04:39:35.092Z,83.01
2017-01-24T04:40:01.644Z,82.91
2017-01-24T04:40:23.342Z,82.95
2017-01-24T04:40:49.914Z,83.01
2017-01-24T04:41:11.616Z,82.94
2017-01-24T04:41:33.365Z,82.88
2017-01-24T04:41:55.083Z,82.84
2017-01-24T04:42:16.868Z,82.70
2017-01-24T04:42:38.578Z,82.65
2017-01-24T04:43:05.073Z,82.65
2017-01-24T04:43:26.795Z,82.76
2017-01-24T04:43:48.571Z,82.68
2017-01-24T04:44:10.305Z,82.58
2017-01-24T04:44:31.995Z,82.62
2017-01-24T04:45:03.259Z,82.60
2017-01-24T04:45:25.056Z,82.61
2017-01-24T04:45:46.766Z,82.66
2017-01-24T04:46:08.485Z,82.65
2017-01-24T04:46:30.257Z,82.80
2017-01-24T04:47:01.538Z,83.04
2017-01-24T04:47:23.243Z,83.16
2017-01-24T04:47:49.796Z,83.15
2017-01-24T04:48:13.508Z,83.41
2017-01-24T04:48:35.228Z,83.64
2017-01-24T04:49:06.488Z,83.82
2017-01-24T04:49:28.299Z,83.84
2017-01-24T04:49:54.798Z,83.89
2017-01-24T04:50:16.513Z,83.92
2017-01-24T04:50:38.302Z,83.93
2017-01-24T04:51:00.028Z,83.75
2017-01-24T04:51:21.729Z,83.73
2017-01-24T04:51:48.280Z,83.75
2017-01-24T04:52:10.008Z,83.68
2017-01-24T04:52:41.295Z,83.65
2017-01-24T04:53:03.089Z,83.61
2017-01-24T04:53:29.567Z,83.57
2017-01-24T04:53:51.275Z,83.63
2017-01-24T04:54:12.991Z,83.58
2017-01-24T04:54:44.249Z,83.42
2017-01-24T04:55:06.040Z,83.32
2017-01-24T04:55:27.761Z,83.41
2017-01-24T04:55:49.474Z,83.29
2017-01-24T04:56:11.272Z,83.34
2017-01-24T04:56:37.761Z,83.10
2017-01-24T04:56:59.460Z,83.01
2017-01-24T04:57:21.180Z,83.02
2017-01-24T04:57:43.033Z,83.02
2017-01-24T04:58:04.728Z,83.00
2017-01-24T04:58:26.437Z,83.04
2017-01-24T04:58:53.007Z,83.09
2017-01-24T04:59:14.725Z,83.12
2017-01-24T04:59:36.430Z,83.03
2017-01-24T05:00:07.817Z,82.99
2017-01-24T05:00:34.251Z,82.88
2017-01-24T05:01:00.733Z,82.92
2017-01-24T05:01:22.523Z,82.83
2017-01-24T05:01:49.004Z,82.88
2017-01-24T05:02:10.709Z,82.85
2017-01-24T05:02:37.262Z,82.80
2017-01-24T05:02:59.006Z,82.77
2017-01-24T05:03:25.500Z,82.82
2017-01-24T05:03:47.221Z,83.04
2017-01-24T05:04:09.026Z,83.01
2017-01-24T05:05:07.353Z,83.34
2017-01-24T05:05:29.133Z,83.37
2017-01-24T05:05:50.869Z,83.31
2017-01-24T05:06:49.276Z,83.71
2017-01-24T05:07:10.987Z,83.53
2017-01-24T05:07:42.271Z,83.68
2017-01-24T05:08:04.036Z,83.80
2017-01-24T05:08:25.756Z,83.88
2017-01-24T05:08:47.462Z,83.90
2017-01-24T05:09:09.174Z,83.71
2017-01-24T05:09:30.971Z,83.78
2017-01-24T05:09:52.688Z,83.91
2017-01-24T05:10:14.386Z,83.55
2017-01-24T05:11:21.673Z,83.59
2017-01-24T05:11:45.801Z,83.58
2017-01-24T05:12:07.593Z,83.39
2017-01-24T05:12:29.323Z,83.33
2017-01-24T05:12:51.068Z,83.30
2017-01-24T05:13:17.613Z,83.19
2017-01-24T05:13:39.321Z,83.28
2017-01-24T05:14:05.810Z,83.46
2017-01-24T05:14:27.526Z,83.44
2017-01-24T05:14:49.321Z,83.36
2017-01-24T05:15:11.030Z,83.23
2017-01-24T05:15:32.733Z,83.14
2017-01-24T05:15:54.489Z,83.24
2017-01-24T05:16:16.307Z,83.06
2017-01-24T05:16:38.013Z,83.17
2017-01-24T05:16:59.730Z,83.13
2017-01-24T05:17:21.446Z,83.23
2017-01-24T05:17:43.241Z,83.22
2017-01-24T05:18:04.956Z,83.19
2017-01-24T05:18:26.675Z,83.09
2017-01-24T05:18:53.181Z,83.13
2017-01-24T05:19:14.978Z,83.11
2017-01-24T05:19:46.237Z,83.13
2017-01-24T05:20:07.957Z,83.16
2017-01-24T05:20:34.520Z,83.17
2017-01-24T05:20:56.252Z,83.00
2017-01-24T05:21:22.719Z,83.03
2017-01-24T05:21:44.451Z,83.05
2017-01-24T05:22:37.535Z,83.30
2017-01-24T05:22:59.257Z,83.48
2017-01-24T05:23:25.808Z,83.56
2017-01-24T05:23:47.511Z,83.70
2017-01-24T05:24:13.991Z,83.83
2017-01-24T05:24:35.695Z,83.91
2017-01-24T05:25:02.253Z,83.95
2017-01-24T05:25:23.968Z,83.95
2017-01-24T05:25:45.670Z,83.97
2017-01-24T05:26:52.957Z,83.79
2017-01-24T05:27:14.673Z,83.77
2017-01-24T05:27:36.372Z,83.74
2017-01-24T05:28:02.905Z,83.68
2017-01-24T05:28:24.611Z,83.86
2017-01-24T05:28:55.920Z,83.66
2017-01-24T05:29:17.692Z,83.72
2017-01-24T05:29:39.436Z,83.95
2017-01-24T05:30:01.152Z,84.04
2017-01-24T05:30:22.892Z,84.05
2017-01-24T05:30:44.657Z,84.16
2017-01-24T05:31:06.374Z,84.20
2017-01-24T05:31:28.087Z,84.19
2017-01-24T05:32:31.395Z,84.06
2017-01-24T05:32:53.129Z,84.01
2017-01-24T05:33:56.391Z,84.14
2017-01-24T05:34:18.121Z,84.16
2017-01-24T05:34:39.832Z,84.27
2017-01-24T05:35:06.379Z,84.30
2017-01-24T05:35:28.099Z,84.32
2017-01-24T05:35:49.821Z,84.48
2017-01-24T05:36:11.529Z,84.52
2017-01-24T05:36:33.324Z,84.60
2017-01-24T05:37:04.592Z,84.49
2017-01-24T05:37:26.310Z,84.54
2017-01-24T05:37:52.873Z,84.64
2017-01-24T05:38:14.582Z,84.71
2017-01-24T05:38:36.313Z,84.74